Time;durP1;ratioP1;P1;durP2;ratioP2;P2;SDS_P1;SDS_P2;PMS_P1;PMS_P2;Temp;Humidity;BMP_temperature;BMP_pressure;BME280_temperature;BME280_humidity;BME280_pressure;Samples;Min_cycle;Max_cycle;Signal;HPM_P1;HPM_P2
2022/12/25 00:00:22;;;;;;;10.50;5.15;;;;;;;6.99;86.04;99664.75;5110844;28;20169;-72
2022/12/25 00:02:48;;;;;;;7.00;5.13;;;;;;;7.06;86.38;99678.25;5113222;28;20054;-72
2022/12/25 00:05:13;;;;;;;18.88;8.60;;;;;;;7.18;85.89;99677.78;5113619;28;20432;-71
2022/12/25 00:07:39;;;;;;;18.42;9.63;;;;;;;7.24;85.63;99684.88;5112652;28;20520;-71
2022/12/25 00:10:05;;;;;;;17.90;10.65;;;;;;;7.20;85.19;99681.06;5113525;28;20020;-71
2022/12/25 00:12:30;;;;;;;9.65;7.07;;;;;;;7.29;84.84;99687.56;5112107;28;20034;-71
2022/12/25 00:14:56;;;;;;;8.60;5.72;;;;;;;7.26;84.15;99683.44;5113346;28;20098;-71
2022/12/25 00:17:21;;;;;;;11.07;5.68;;;;;;;7.33;84.00;99688.59;5111166;28;20490;-71
2022/12/25 00:19:46;;;;;;;25.80;12.02;;;;;;;7.54;83.70;99691.84;5112375;28;20485;-71
2022/12/25 00:22:12;;;;;;;24.10;11.38;;;;;;;7.91;81.48;99697.47;5111191;28;20509;-71
2022/12/25 00:24:37;;;;;;;36.88;13.90;;;;;;;8.05;80.17;99696.63;5111867;28;20410;-71
2022/12/25 00:27:03;;;;;;;21.85;7.80;;;;;;;8.21;79.48;99708.25;5111709;28;20027;-71
2022/12/25 00:29:28;;;;;;;12.63;4.78;;;;;;;8.27;79.51;99698.66;5113127;28;20020;-71
2022/12/25 00:31:54;;;;;;;5.90;4.32;;;;;;;8.26;78.69;99694.19;5111917;28;20023;-71
2022/12/25 00:34:20;;;;;;;7.05;4.88;;;;;;;8.23;79.01;99697.59;5110267;28;20027;-71
2022/12/25 00:36:49;;;;;;;6.78;4.82;;;;;;;8.13;78.95;99702.25;5112387;28;20422;-71
2022/12/25 00:39:14;;;;;;;7.68;5.07;;;;;;;8.11;79.28;99703.72;5113134;27;20111;-71
2022/12/25 00:44:24;;;;;;;6.18;4.20;;;;;;;8.35;77.41;99705.44;5112914;28;20022;-71
2022/12/25 00:46:49;;;;;;;7.50;5.45;;;;;;;8.28;77.76;99706.66;5112620;28;20016;-71
2022/12/25 00:49:15;;;;;;;7.40;5.45;;;;;;;8.20;78.13;99720.53;5110329;28;20463;-71
2022/12/25 00:51:40;;;;;;;8.75;4.95;;;;;;;8.30;78.07;99723.09;5112271;28;20027;-71
2022/12/25 00:54:06;;;;;;;6.43;4.30;;;;;;;8.22;77.19;99715.47;5111230;28;20532;-71
2022/12/25 00:56:31;;;;;;;7.55;4.43;;;;;;;8.11;78.47;99720.44;5111377;28;20027;-72
2022/12/25 00:58:57;;;;;;;4.88;3.63;;;;;;;8.05;78.87;99711.38;5112227;28;20032;-71
2022/12/25 01:01:22;;;;;;;6.38;4.00;;;;;;;8.36;78.11;99707.06;5111321;28;20498;-71
2022/12/25 01:03:48;;;;;;;6.93;4.53;;;;;;;8.48;77.86;99714.88;5110312;28;20062;-71
2022/12/25 01:06:13;;;;;;;4.25;3.85;;;;;;;8.56;77.18;99709.38;5108295;28;20015;-71
2022/12/25 01:10:21;;;;;;;6.43;4.50;;;;;;;8.46;78.21;99720.78;5112489;28;20024;-71
2022/12/25 01:11:27;;;;;;;6.60;4.97;;;;;;;8.40;78.55;99719.22;5111665;28;20024;-71
2022/12/25 01:13:52;;;;;;;7.60;4.90;;;;;;;8.26;78.74;99713.69;5112087;28;20088;-71
2022/12/25 01:16:18;;;;;;;5.97;4.57;;;;;;;8.35;79.16;99711.00;5112272;28;20019;-71
2022/12/25 01:18:45;;;;;;;8.60;5.65;;;;;;;8.29;78.58;99713.88;5111279;28;20019;-71
2022/12/25 01:21:15;;;;;;;7.38;5.15;;;;;;;8.36;78.58;99718.22;5109907;28;20015;-71
2022/12/25 01:23:40;;;;;;;9.57;5.00;;;;;;;8.29;78.45;99727.03;5111529;28;20027;-71
2022/12/25 01:26:08;;;;;;;6.28;4.63;;;;;;;8.29;79.47;99727.81;5111899;28;20035;-71
2022/12/25 01:28:34;;;;;;;7.88;4.75;;;;;;;8.21;79.43;99731.38;5112230;28;20135;-71
2022/12/25 01:31:00;;;;;;;7.20;5.43;;;;;;;8.16;78.94;99725.91;5111875;28;20024;-71
2022/12/25 01:33:27;;;;;;;6.88;5.00;;;;;;;8.34;78.59;99726.09;5108518;28;20578;-71
2022/12/25 01:35:52;;;;;;;7.00;5.25;;;;;;;8.33;78.52;99730.00;5112291;28;20047;-71
2022/12/25 01:38:17;;;;;;;7.75;5.38;;;;;;;8.24;79.50;99722.38;5109512;28;20062;-71
2022/12/25 01:40:43;;;;;;;7.43;5.55;;;;;;;8.07;79.25;99723.03;5110985;28;20482;-71
2022/12/25 01:43:27;;;;;;;8.45;5.40;;;;;;;7.64;79.81;99710.28;5095518;28;20077;-71
2022/12/25 01:45:52;;;;;;;7.55;5.57;;;;;;;7.49;80.80;99718.94;5091343;28;20020;-71
2022/12/25 01:48:22;;;;;;;7.18;5.50;;;;;;;7.35;82.05;99713.34;5102359;28;20023;-71
2022/12/25 01:50:57;;;;;;;11.30;8.77;;;;;;;7.34;81.48;99704.16;5110774;28;20031;-71
2022/12/25 01:53:24;;;;;;;95.40;58.80;;;;;;;7.36;82.14;99707.50;5108642;28;20053;-71
2022/12/25 01:55:54;;;;;;;60.08;35.97;;;;;;;7.46;81.62;99703.69;5110691;28;20525;-71
2022/12/25 01:58:20;;;;;;;33.55;21.63;;;;;;;7.44;80.83;99709.53;5111181;28;20049;-71
2022/12/25 02:00:46;;;;;;;24.35;15.70;;;;;;;7.39;81.34;99711.59;5111537;28;20019;-71
2022/12/25 02:03:12;;;;;;;13.40;9.48;;;;;;;7.42;80.88;99711.81;5110807;28;20501;-70
2022/12/25 02:05:39;;;;;;;14.25;9.48;;;;;;;7.47;80.32;99715.63;5111435;28;20059;-71
2022/12/25 02:08:09;;;;;;;14.25;7.97;;;;;;;7.42;80.36;99710.97;5108187;28;20031;-71
2022/12/25 02:10:37;;;;;;;10.43;7.07;;;;;;;7.32;80.31;99709.22;5109459;28;20035;-71
2022/12/25 02:13:03;;;;;;;7.55;5.80;;;;;;;7.25;80.52;99711.59;5127372;28;20026;-71
2022/12/25 02:15:57;;;;;;;6.88;5.00;;;;;;;7.20;80.70;99718.06;5127315;28;20103;-71
2022/12/25 02:18:35;;;;;;;8.93;5.07;;;;;;;7.16;80.18;99717.03;5103118;28;20064;-71
2022/12/25 02:21:25;;;;;;;7.65;5.07;;;;;;;7.07;80.80;99718.88;5111339;28;20023;-71
2022/12/25 02:24:16;;;;;;;10.13;6.35;;;;;;;7.10;80.85;99705.16;5112522;28;20027;-71
2022/12/25 02:27:19;;;;;;;10.15;5.95;;;;;;;7.15;80.69;99707.88;5115225;28;20031;-71
2022/12/25 02:30:07;;;;;;;12.18;8.10;;;;;;;7.00;80.52;99714.53;5114187;28;20030;-71
2022/12/25 02:32:44;;;;;;;10.98;7.85;;;;;;;7.03;81.56;99724.22;5114594;28;20548;-71
2022/12/25 02:35:23;;;;;;;8.15;6.03;;;;;;;7.29;81.00;99720.97;5114113;28;20486;-71
2022/12/25 02:38:02;;;;;;;7.75;5.30;;;;;;;7.28;80.88;99716.53;5114454;28;20031;-71
2022/12/25 02:40:34;;;;;;;8.40;5.18;;;;;;;7.32;80.35;99723.13;5111885;27;20024;-71
2022/12/25 03:08:26;;;;;;;9.30;5.80;;;;;;;7.33;81.83;99715.63;5114957;28;20402;-71
2022/12/25 03:13:50;;;;;;;7.20;5.32;;;;;;;7.39;81.04;99723.56;5114832;28;20038;-71
2022/12/25 03:26:53;;;;;;;5.45;4.68;;;;;;;7.41;80.36;99718.50;5100769;28;20039;-71
2022/12/25 03:27:14;;;;;;;8.57;5.70;;;;;;;7.07;81.93;99722.47;5111762;28;20083;-71
2022/12/25 03:32:57;;;;;;;11.85;6.85;;;;;;;6.79;83.20;99730.72;5100578;28;20026;-71
2022/12/25 03:35:44;;;;;;;9.05;6.63;;;;;;;6.78;83.13;99740.22;5113807;28;20015;-71
2022/12/25 04:37:11;;;;;;;10.93;6.60;;;;;;;6.35;90.34;99805.03;5113120;28;20422;-71
2022/12/25 04:39:36;;;;;;;10.65;6.68;;;;;;;6.49;89.17;99819.00;5112842;28;20027;-71
2022/12/25 04:42:02;;;;;;;12.65;6.53;;;;;;;6.61;88.11;99824.13;5109116;28;20020;-71
2022/12/25 04:44:27;;;;;;;8.00;6.05;;;;;;;6.59;87.58;99820.84;5112972;28;20038;-71
2022/12/25 04:46:53;;;;;;;8.45;6.13;;;;;;;6.64;87.13;99828.28;5111742;28;20027;-71
2022/12/25 04:49:18;;;;;;;9.02;6.13;;;;;;;6.63;87.21;99826.59;5112728;28;20023;-71
2022/12/25 04:51:44;;;;;;;10.35;6.28;;;;;;;6.59;86.82;99838.31;5112634;28;20023;-71
2022/12/25 04:54:09;;;;;;;12.80;8.18;;;;;;;6.54;87.14;99837.56;5112589;28;20113;-71
2022/12/25 04:56:34;;;;;;;10.65;6.32;;;;;;;6.28;87.74;99844.31;5111484;28;20027;-71
2022/12/25 04:59:00;;;;;;;12.35;6.75;;;;;;;6.18;88.57;99844.44;5104093;28;20028;-71
2022/12/25 05:01:25;;;;;;;10.52;5.65;;;;;;;6.11;89.23;99849.50;5110937;28;20514;-71
2022/12/25 05:03:51;;;;;;;12.52;8.35;;;;;;;6.12;89.36;99853.94;5112244;28;20058;-71
2022/12/25 05:06:17;;;;;;;12.50;9.52;;;;;;;6.17;89.09;99857.47;5112441;28;20024;-71
2022/12/25 05:08:42;;;;;;;14.30;10.43;;;;;;;6.30;88.57;99858.72;5112482;28;20526;-71
2022/12/25 05:11:10;;;;;;;17.42;12.57;;;;;;;6.27;88.58;99862.06;5111632;28;20027;-71
2022/12/25 05:13:37;;;;;;;19.13;11.82;;;;;;;6.30;88.16;99869.84;5112478;28;20026;-71
2022/12/25 05:16:12;;;;;;;21.73;12.40;;;;;;;6.31;88.11;99878.97;5112144;28;20516;-71
2022/12/25 05:18:37;;;;;;;22.02;14.32;;;;;;;6.38;88.06;99875.84;5110562;28;20031;-71
2022/12/25 05:21:03;;;;;;;15.52;10.48;;;;;;;6.46;87.01;99884.38;5112270;28;20427;-71
2022/12/25 05:23:29;;;;;;;12.75;8.63;;;;;;;6.51;86.18;99888.19;5112213;28;20031;-71
2022/12/25 05:25:55;;;;;;;12.98;6.85;;;;;;;6.70;85.34;99897.41;5109663;28;20031;-71
2022/12/25 05:28:21;;;;;;;10.02;6.90;;;;;;;6.84;84.12;99891.09;5111967;28;20031;-71
2022/12/25 05:30:46;;;;;;;12.15;7.03;;;;;;;6.98;82.88;99893.94;5110584;28;20028;-71
2022/12/25 05:33:12;;;;;;;11.70;8.13;;;;;;;7.01;83.16;99898.94;5110877;28;20038;-71
2022/12/25 05:35:38;;;;;;;12.95;7.65;;;;;;;6.99;82.54;99893.66;5107228;28;20030;-71
2022/12/25 05:38:06;;;;;;;10.77;8.13;;;;;;;6.91;83.08;99899.06;5111964;28;20027;-71
2022/12/25 05:40:31;;;;;;;14.07;10.43;;;;;;;6.88;83.55;99908.84;5110999;28;20035;-71
2022/12/25 05:42:57;;;;;;;13.88;10.45;;;;;;;6.90;82.67;99909.34;5110645;28;20421;-71
2022/12/25 05:45:22;;;;;;;12.25;9.25;;;;;;;6.95;82.01;99905.69;5111881;28;20016;-71
2022/12/25 05:47:48;;;;;;;21.30;12.48;;;;;;;7.05;81.66;99921.38;5110487;28;20027;-71
2022/12/25 05:50:13;;;;;;;23.15;12.23;;;;;;;7.15;81.24;99921.25;5110474;28;20023;-72
2022/12/25 05:52:39;;;;;;;14.15;9.35;;;;;;;7.22;80.44;99926.41;5112073;28;20028;-72
2022/12/25 05:55:05;;;;;;;15.27;10.85;;;;;;;7.42;79.34;99941.97;5110640;28;20494;-73
2022/12/25 05:57:31;;;;;;;18.05;11.40;;;;;;;7.33;79.49;99944.63;5112001;28;20027;-73
2022/12/25 05:59:57;;;;;;;16.08;11.05;;;;;;;7.18;80.47;99953.22;5112062;28;20055;-73
2022/12/25 06:02:23;;;;;;;15.80;8.80;;;;;;;7.10;80.68;99963.88;5112116;28;20055;-71
2022/12/25 06:04:48;;;;;;;13.05;8.45;;;;;;;6.97;81.87;99971.00;5110870;28;20024;-70
2022/12/25 06:07:14;;;;;;;17.38;11.07;;;;;;;6.95;81.86;99983.56;5110034;28;20473;-73
2022/12/25 06:09:39;;;;;;;19.70;11.05;;;;;;;6.95;81.78;99978.81;5104483;28;20517;-72
2022/12/25 06:12:05;;;;;;;14.10;9.38;;;;;;;6.95;81.54;99987.19;5101603;28;20023;-72
2022/12/25 06:14:32;;;;;;;14.10;8.73;;;;;;;6.96;81.82;99985.19;5103894;28;20031;-73
2022/12/25 06:16:57;;;;;;;17.58;10.07;;;;;;;6.98;81.54;99983.78;5110940;28;20031;-73
2022/12/25 06:19:23;;;;;;;16.45;11.20;;;;;;;6.84;81.84;99989.25;5110947;28;20105;-73
2022/12/25 06:21:53;;;;;;;23.92;15.40;;;;;;;6.88;82.02;99998.66;5110714;28;20024;-73
2022/12/25 06:24:18;;;;;;;24.40;15.63;;;;;;;6.81;82.56;100000.13;5109859;28;20039;-73
2022/12/25 06:26:44;;;;;;;25.20;14.70;;;;;;;6.80;82.20;100007.66;5106238;28;20134;-73
2022/12/25 06:29:09;;;;;;;26.85;16.20;;;;;;;6.73;82.78;100005.22;5102808;28;20024;-74
2022/12/25 06:31:35;;;;;;;34.90;22.95;;;;;;;6.74;82.95;100018.00;5108315;28;20482;-74
2022/12/25 06:34:00;;;;;;;33.83;21.13;;;;;;;6.90;82.45;100022.56;5110031;28;20110;-75
2022/12/25 06:36:28;;;;;;;35.70;21.67;;;;;;;6.89;82.59;100024.50;5110194;28;20549;-74
2022/12/25 06:38:54;;;;;;;46.67;26.67;;;;;;;6.96;81.89;100027.75;5109908;28;20437;-74
2022/12/25 06:41:25;;;;;;;53.92;28.92;;;;;;;7.12;81.82;100030.34;5110014;28;20020;-76
2022/12/25 06:43:53;;;;;;;76.82;37.42;;;;;;;7.22;81.38;100018.25;5109912;28;20045;-73
2022/12/25 06:46:20;;;;;;;61.92;32.28;;;;;;;7.32;80.33;100036.78;5099429;28;20110;-74
2022/12/25 06:48:49;;;;;;;59.00;29.75;;;;;;;7.38;80.43;100025.28;5087198;28;20516;-74
2022/12/25 06:51:20;;;;;;;53.05;30.27;;;;;;;7.55;79.88;100038.66;5087194;28;20089;-72
2022/12/25 06:53:47;;;;;;;57.92;31.80;;;;;;;7.61;80.37;100033.00;5095986;28;20107;-74
2022/12/25 06:56:15;;;;;;;38.42;23.95;;;;;;;7.62;80.32;100040.22;5107310;28;20486;-73
2022/12/25 06:58:52;;;;;;;51.33;29.75;;;;;;;7.66;79.43;100036.56;5104775;28;20142;-73
2022/12/25 07:01:42;;;;;;;22.77;16.40;;;;;;;7.83;79.42;100040.75;5107049;28;20105;-74
2022/12/25 07:04:39;;;;;;;18.15;12.43;;;;;;;8.18;77.94;100052.44;5093067;28;20070;-73
2022/12/25 07:07:07;;;;;;;29.98;20.50;;;;;;;8.37;77.09;100052.38;5100137;28;20571;-73
2022/12/25 07:09:33;;;;;;;33.25;22.88;;;;;;;8.49;76.22;100054.69;5108487;28;20197;-76
2022/12/25 07:12:20;;;;;;;32.10;21.00;;;;;;;8.63;76.09;100065.06;5110537;28;20096;-72
2022/12/25 07:14:48;;;;;;;30.17;22.05;;;;;;;8.85;74.90;100061.56;5109604;28;20031;-73
2022/12/25 07:17:15;;;;;;;23.58;13.88;;;;;;;8.85;74.53;100062.41;5112039;28;20109;-74
2022/12/25 07:19:40;;;;;;;30.80;20.35;;;;;;;9.01;73.91;100078.03;5109329;28;20463;-74
2022/12/25 07:22:06;;;;;;;22.55;14.52;;;;;;;9.15;73.83;100083.59;5110558;28;20031;-74
2022/12/25 07:24:31;;;;;;;33.65;22.30;;;;;;;9.29;73.28;100067.69;5110595;28;20031;-74
2022/12/25 07:26:57;;;;;;;15.73;11.43;;;;;;;9.45;72.73;100073.75;5108252;28;20187;-75
2022/12/25 07:29:22;;;;;;;64.20;16.60;;;;;;;9.48;72.23;100080.69;5106663;28;20065;-75
2022/12/25 07:31:48;;;;;;;21.85;16.15;;;;;;;9.36;72.24;100072.84;5109081;28;20027;-72
2022/12/25 07:34:15;;;;;;;12.05;8.80;;;;;;;9.62;72.00;100086.25;5109854;28;20801;-73
2022/12/25 07:36:41;;;;;;;17.08;10.57;;;;;;;9.69;72.00;100087.47;5108160;28;20042;-75
2022/12/25 07:39:06;;;;;;;18.25;11.13;;;;;;;9.82;71.70;100090.53;5108916;28;20039;-71
2022/12/25 07:41:31;;;;;;;19.25;11.68;;;;;;;9.82;72.13;100085.75;5102573;28;20089;-73
2022/12/25 07:43:57;;;;;;;24.15;13.35;;;;;;;9.83;72.57;100089.41;5093934;28;20043;-70
2022/12/25 07:46:22;;;;;;;23.70;14.02;;;;;;;9.55;74.95;100092.25;5105065;28;20034;-69
2022/12/25 07:48:48;;;;;;;19.23;12.05;;;;;;;9.50;74.84;100098.78;5107463;28;20087;-69
2022/12/25 07:51:15;;;;;;;21.10;13.40;;;;;;;9.52;75.89;100092.88;5103814;28;20056;-71
2022/12/25 07:53:41;;;;;;;16.08;10.32;;;;;;;9.58;74.12;100102.81;5109726;28;20035;-68
2022/12/25 07:56:11;;;;;;;16.85;9.75;;;;;;;9.73;73.38;100109.19;5107635;27;20040;-72
2022/12/25 07:58:37;;;;;;;20.02;12.27;;;;;;;9.80;72.87;100115.19;5105940;28;20113;-69
2022/12/25 08:01:05;;;;;;;9.68;6.75;;;;;;;9.98;70.60;100105.81;5110198;28;20478;-67
2022/12/25 08:03:33;;;;;;;10.25;7.78;;;;;;;9.88;70.54;100111.63;5108835;28;20406;-72
2022/12/25 08:06:04;;;;;;;13.00;8.98;;;;;;;9.90;70.03;100131.72;5099932;28;20489;-73
2022/12/25 08:08:30;;;;;;;22.15;11.07;;;;;;;9.77;69.96;100125.00;5105159;28;20024;-72
2022/12/25 08:10:55;;;;;;;16.13;8.70;;;;;;;9.88;68.56;100128.38;5103242;28;20024;-71
2022/12/25 08:13:21;;;;;;;22.20;12.15;;;;;;;10.06;69.51;100139.75;5105079;28;20042;-75
2022/12/25 08:15:47;;;;;;;17.35;9.85;;;;;;;10.18;69.69;100137.22;5109469;28;20113;-75
2022/12/25 08:18:12;;;;;;;12.50;8.38;;;;;;;10.43;68.66;100146.16;5101371;28;20027;-73
2022/12/25 08:20:38;;;;;;;11.10;7.15;;;;;;;10.53;67.67;100131.91;5097147;28;20509;-73
2022/12/25 08:23:04;;;;;;;12.38;8.38;;;;;;;10.70;65.51;100140.75;5109942;28;20027;-70
2022/12/25 08:25:30;;;;;;;9.80;6.63;;;;;;;10.79;65.03;100136.00;5095506;28;20032;-71
2022/12/25 08:27:55;;;;;;;9.25;5.40;;;;;;;11.03;64.51;100127.25;5096105;28;20425;-71
2022/12/25 08:30:21;;;;;;;20.45;14.60;;;;;;;11.18;63.38;100133.56;5103489;28;20034;-71
2022/12/25 08:32:46;;;;;;;39.05;23.70;;;;;;;11.04;64.13;100148.50;5106152;28;20015;-71
2022/12/25 08:35:12;;;;;;;20.33;13.07;;;;;;;11.27;62.93;100144.81;5107858;28;20493;-73
2022/12/25 08:37:37;;;;;;;14.77;5.28;;;;;;;11.36;62.86;100152.13;5104016;28;20491;-72
2022/12/25 08:40:03;;;;;;;13.98;6.90;;;;;;;11.35;62.60;100147.66;5103328;28;20059;-73
2022/12/25 08:42:29;;;;;;;7.35;4.57;;;;;;;11.63;61.94;100143.78;5106467;28;20503;-69
2022/12/25 08:44:54;;;;;;;12.90;7.72;;;;;;;11.36;61.52;100143.72;5103178;28;20031;-70
2022/12/25 08:47:20;;;;;;;11.90;7.22;;;;;;;11.37;61.04;100150.97;5109164;28;20108;-72
2022/12/25 08:49:45;;;;;;;8.02;5.43;;;;;;;11.11;62.15;100147.22;5108034;27;20038;-74
2022/12/25 08:52:10;;;;;;;8.27;5.20;;;;;;;11.29;61.52;100151.75;5097603;28;20335;-73
2022/12/25 08:54:36;;;;;;;17.95;9.38;;;;;;;11.50;61.76;100139.97;5100001;28;20086;-74
2022/12/25 08:57:02;;;;;;;12.27;6.70;;;;;;;11.79;60.19;100138.53;5104323;28;20027;-75
2022/12/25 08:59:28;;;;;;;46.75;25.70;;;;;;;12.10;59.22;100148.84;5106313;27;20027;-71
2022/12/25 09:01:53;;;;;;;32.33;19.20;;;;;;;12.42;57.67;100138.25;5100707;28;20062;-75
2022/12/25 09:04:19;;;;;;;7.25;5.22;;;;;;;12.53;56.75;100140.72;5099358;28;20054;-75
2022/12/25 09:06:44;;;;;;;6.88;4.38;;;;;;;12.17;56.43;100139.94;5106693;28;20496;-75
2022/12/25 09:09:10;;;;;;;15.27;9.80;;;;;;;12.45;56.74;100134.81;5105971;28;20024;-77
2022/12/25 09:11:35;;;;;;;18.90;13.05;;;;;;;12.47;55.83;100126.03;5105874;28;20134;-72
2022/12/25 09:14:01;;;;;;;8.50;5.57;;;;;;;12.63;56.79;100132.81;5107747;28;20039;-71
2022/12/25 09:16:26;;;;;;;6.32;4.95;;;;;;;12.54;55.51;100131.16;5105960;28;20542;-72
2022/12/25 09:18:52;;;;;;;15.02;10.30;;;;;;;12.64;54.86;100130.81;5103400;28;20032;-71
2022/12/25 09:21:17;;;;;;;19.02;12.95;;;;;;;12.66;55.59;100127.69;5105379;28;20039;-72
2022/12/25 09:23:43;;;;;;;8.27;4.93;;;;;;;12.75;54.45;100126.50;5106040;28;20119;-74
2022/12/25 09:26:12;;;;;;;13.18;7.45;;;;;;;12.89;55.64;100120.69;5109735;28;20042;-75
2022/12/25 09:28:38;;;;;;;19.50;9.05;;;;;;;12.70;55.26;100120.22;5108808;28;20028;-72
2022/12/25 09:31:04;;;;;;;18.70;9.35;;;;;;;12.39;56.37;100119.28;5105957;28;20038;-73
2022/12/25 09:33:29;;;;;;;32.72;15.65;;;;;;;12.46;56.48;100110.38;5102270;28;20114;-73
2022/12/25 09:36:03;;;;;;;17.02;10.77;;;;;;;12.33;56.47;100115.03;5101092;28;20028;-72
2022/12/25 09:38:29;;;;;;;170.40;126.88;;;;;;;12.55;55.38;100108.38;5108984;28;20406;-72
2022/12/25 09:41:21;;;;;;;97.25;72.47;;;;;;;12.75;56.83;100098.44;5104204;28;20081;-77
2022/12/25 09:43:55;;;;;;;308.90;195.88;;;;;;;12.80;55.79;100099.44;5106873;28;20095;-74
2022/12/25 09:46:24;;;;;;;101.00;51.08;;;;;;;12.69;56.44;100093.31;5108443;28;20096;-74
2022/12/25 09:49:12;;;;;;;74.93;40.50;;;;;;;12.70;56.11;100093.00;5111075;28;20028;-74
2022/12/25 09:51:43;;;;;;;48.25;26.17;;;;;;;12.71;56.17;100091.00;5106079;28;20039;-74
2022/12/25 09:54:23;;;;;;;61.47;27.55;;;;;;;12.85;56.88;100090.81;5111405;28;20123;-74
2022/12/25 09:56:49;;;;;;;20.17;10.23;;;;;;;12.66;55.00;100085.59;5110012;28;20034;-75
2022/12/25 09:59:23;;;;;;;31.75;14.25;;;;;;;12.68;56.90;100086.06;5111326;28;20099;-73
2022/12/25 10:02:03;;;;;;;11.35;6.25;;;;;;;12.64;54.46;100080.28;5108664;28;20026;-74
2022/12/25 10:04:55;;;;;;;31.23;15.88;;;;;;;12.74;56.01;100087.56;5111090;28;20032;-73
2022/12/25 10:07:30;;;;;;;8.85;5.57;;;;;;;12.91;54.76;100087.47;5095914;28;20035;-74
2022/12/25 10:10:08;;;;;;;7.60;4.65;;;;;;;12.67;53.80;100071.22;5108102;28;20119;-73
2022/12/25 10:13:00;;;;;;;7.80;4.20;;;;;;;12.75;54.44;100087.19;5108093;28;20034;-73
2022/12/25 10:15:56;;;;;;;8.57;5.10;;;;;;;12.92;53.43;100091.94;5102406;28;20482;-70
2022/12/25 10:18:35;;;;;;;8.93;5.07;;;;;;;12.82;51.54;100083.88;5107565;28;20081;-72
2022/12/25 10:21:02;;;;;;;5.47;2.90;;;;;;;12.87;52.19;100094.94;5122038;28;20074;-72
2022/12/25 10:23:34;;;;;;;9.15;5.20;;;;;;;12.91;52.84;100089.44;5108529;28;20100;-70
2022/12/25 10:26:00;;;;;;;21.52;12.50;;;;;;;12.99;53.73;100085.78;5107870;28;20024;-70
2022/12/25 10:28:37;;;;;;;5.80;3.92;;;;;;;13.17;50.70;100088.53;5107975;28;20047;-70
2022/12/25 10:31:21;;;;;;;10.57;6.57;;;;;;;13.32;52.20;100089.94;5099840;28;20039;-71
2022/12/25 10:33:49;;;;;;;14.00;8.38;;;;;;;13.32;51.61;100084.31;5108808;28;20024;-70
2022/12/25 10:36:23;;;;;;;11.75;5.13;;;;;;;13.39;52.03;100086.59;5107200;28;20567;-71
2022/12/25 10:38:49;;;;;;;4.53;3.33;;;;;;;13.44;51.95;100098.50;5103826;28;20028;-72
2022/12/25 10:41:40;;;;;;;5.53;3.63;;;;;;;13.50;50.56;100092.69;5106333;28;20032;-72
2022/12/25 10:44:20;;;;;;;10.90;4.85;;;;;;;13.57;48.22;100101.41;5108429;28;20031;-69
2022/12/25 10:46:51;;;;;;;8.35;4.35;;;;;;;13.57;49.58;100093.81;5111577;28;20106;-71
2022/12/25 10:49:20;;;;;;;2.45;1.83;;;;;;;13.50;47.32;100081.47;5106135;28;20417;-69
2022/12/25 10:51:48;;;;;;;6.53;3.70;;;;;;;13.57;47.36;100071.31;5126680;27;20486;-68
2022/12/25 10:54:19;;;;;;;5.13;2.55;;;;;;;13.54;47.75;100076.78;5100784;28;20055;-69
2022/12/25 10:57:15;;;;;;;7.50;3.45;;;;;;;13.68;48.33;100082.16;5103610;28;20398;-70
2022/12/25 10:59:44;;;;;;;3.60;1.58;;;;;;;13.77;47.39;100074.50;5108482;28;20137;-71
2022/12/25 11:02:38;;;;;;;5.00;2.35;;;;;;;13.80;47.72;100071.00;5106441;28;20062;-72
2022/12/25 11:05:12;;;;;;;3.47;2.05;;;;;;;13.80;47.71;100061.72;5102719;28;20416;-70
2022/12/25 11:07:53;;;;;;;4.25;2.60;;;;;;;13.77;48.57;100054.81;5112013;28;20036;-72
2022/12/25 11:10:21;;;;;;;5.40;2.60;;;;;;;13.89;45.96;100068.94;5111001;28;20031;-71
2022/12/25 11:12:46;;;;;;;5.00;2.75;;;;;;;13.88;47.39;100067.31;5108997;27;20505;-73
2022/12/25 11:15:38;;;;;;;5.95;2.58;;;;;;;13.84;46.66;100071.94;5110723;28;20027;-72
2022/12/25 11:18:25;;;;;;;9.57;6.25;;;;;;;13.79;45.72;100069.34;5111722;28;20031;-72
2022/12/25 11:20:57;;;;;;;7.70;4.35;;;;;;;13.96;46.44;100071.22;5111466;28;20121;-70
2022/12/25 11:23:24;;;;;;;7.93;4.35;;;;;;;13.84;46.56;100074.75;5091632;28;20433;-74
2022/12/25 11:26:02;;;;;;;13.55;6.65;;;;;;;13.96;46.17;100064.75;5091193;28;20101;-72
2022/12/25 11:28:30;;;;;;;6.68;3.88;;;;;;;13.85;46.16;100062.34;5103905;28;20031;-71
2022/12/25 11:31:14;;;;;;;4.05;2.58;;;;;;;14.13;45.46;100075.03;5111654;28;20035;-72
2022/12/25 11:33:58;;;;;;;5.80;3.30;;;;;;;14.07;45.03;100070.78;5110587;28;20395;-72
2022/12/25 11:36:45;;;;;;;8.63;5.22;;;;;;;14.29;44.67;100067.59;5098693;28;20028;-71
2022/12/25 11:39:19;;;;;;;9.82;5.88;;;;;;;14.05;44.37;100073.94;5091731;28;20423;-72
2022/12/25 11:41:46;;;;;;;17.02;8.75;;;;;;;14.10;42.33;100058.84;5100568;28;20040;-72
2022/12/25 11:44:38;;;;;;;11.90;6.00;;;;;;;14.11;43.24;100064.09;5095326;28;20085;-71
2022/12/25 11:47:16;;;;;;;3.35;2.00;;;;;;;14.04;44.56;100063.84;5100499;28;20040;-72
2022/12/25 11:49:58;;;;;;;1.98;1.70;;;;;;;14.27;44.47;100057.88;5102261;27;20039;-73
2022/12/25 11:52:30;;;;;;;3.92;3.03;;;;;;;14.13;45.70;100058.97;5098453;28;20024;-72
2022/12/25 11:55:10;;;;;;;1.75;1.42;;;;;;;14.13;44.72;100053.34;5092463;28;20036;-72
2022/12/25 11:57:37;;;;;;;1.63;1.52;;;;;;;14.16;44.39;100058.28;5099700;28;20027;-72
2022/12/25 12:00:09;;;;;;;2.47;1.52;;;;;;;14.22;44.01;100055.25;5098225;28;20107;-73
2022/12/25 12:02:57;;;;;;;2.78;1.60;;;;;;;14.25;44.67;100060.22;5098783;28;20023;-72
2022/12/25 12:05:42;;;;;;;2.55;1.77;;;;;;;14.27;45.89;100060.69;5102866;28;20538;-72
2022/12/25 12:08:10;;;;;;;3.17;2.08;;;;;;;14.28;44.65;100062.31;5105500;28;20434;-73
2022/12/25 12:10:41;;;;;;;4.90;3.30;;;;;;;14.23;44.48;100059.69;5097661;28;20114;-72
2022/12/25 12:13:43;;;;;;;4.50;2.30;;;;;;;14.15;43.83;100067.91;5102008;28;20055;-73
2022/12/25 12:16:09;;;;;;;5.13;3.08;;;;;;;14.15;44.83;100056.66;5103960;28;20027;-75
2022/12/25 12:18:35;;;;;;;1.65;1.48;;;;;;;14.22;45.41;100066.50;5099070;28;20032;-68
2022/12/25 12:21:08;;;;;;;4.00;1.48;;;;;;;14.21;44.36;100054.44;5094830;28;20039;-70
2022/12/25 12:23:47;;;;;;;5.03;1.85;;;;;;;14.27;44.87;100058.66;5106079;28;20081;-70
2022/12/25 12:26:22;;;;;;;5.10;1.88;;;;;;;14.18;43.91;100061.56;5100464;28;20027;-72
2022/12/25 12:28:49;;;;;;;3.63;2.70;;;;;;;14.10;43.70;100059.66;5095104;28;20099;-70
2022/12/25 12:31:15;;;;;;;3.63;2.13;;;;;;;14.11;45.16;100072.53;5100323;28;20174;-70
2022/12/25 12:33:47;;;;;;;8.77;2.70;;;;;;;14.20;45.52;100077.28;5105804;28;20497;-70
2022/12/25 12:36:14;;;;;;;4.15;1.80;;;;;;;14.24;45.55;100079.06;5106784;28;20413;-72
2022/12/25 12:38:42;;;;;;;3.42;2.03;;;;;;;14.29;44.78;100078.84;5101809;28;20588;-71
2022/12/25 12:41:11;;;;;;;4.68;2.58;;;;;;;14.24;45.35;100075.41;5102943;28;20490;-71
2022/12/25 12:43:59;;;;;;;5.18;3.47;;;;;;;14.33;44.31;100084.59;5096635;28;20551;-70
2022/12/25 12:46:29;;;;;;;3.63;2.42;;;;;;;14.22;43.99;100078.59;5098094;28;20405;-71
2022/12/25 12:49:24;;;;;;;5.83;3.33;;;;;;;14.32;44.78;100085.78;5097930;28;20042;-70
2022/12/25 12:52:06;;;;;;;9.00;4.13;;;;;;;14.30;45.22;100086.13;5104265;28;20421;-70
2022/12/25 12:54:32;;;;;;;2.47;2.05;;;;;;;14.14;44.84;100079.47;5107783;28;20039;-70
2022/12/25 12:57:02;;;;;;;2.70;1.63;;;;;;;14.26;46.11;100081.53;5102462;28;20454;-70
2022/12/25 12:59:37;;;;;;;2.25;1.75;;;;;;;14.55;45.63;100093.84;5100347;28;20028;-73
2022/12/25 13:02:31;;;;;;;1.95;1.75;;;;;;;14.32;45.25;100083.78;5104430;28;20031;-71
2022/12/25 13:05:23;;;;;;;4.85;3.33;;;;;;;14.32;45.06;100082.97;5103926;28;20026;-71
2022/12/25 13:08:04;;;;;;;3.88;2.72;;;;;;;14.35;45.42;100093.50;5094706;28;20042;-69
2022/12/25 13:10:32;;;;;;;2.53;1.48;;;;;;;14.23;44.92;100090.66;5101473;28;20161;-71
2022/12/25 13:13:47;;;;;;;3.38;1.98;;;;;;;14.17;46.24;100098.47;5108839;28;20600;-71
2022/12/25 13:16:30;;;;;;;2.92;2.38;;;;;;;14.10;45.07;100101.03;5019934;28;20446;-70
2022/12/25 13:18:56;;;;;;;5.07;2.17;;;;;;;14.08;46.04;100094.94;5044629;28;20040;-70
2022/12/25 13:21:27;;;;;;;2.25;1.83;;;;;;;14.16;47.10;100106.13;5084263;28;20130;-73
2022/12/25 13:24:17;;;;;;;5.70;1.80;;;;;;;14.14;46.43;100102.81;5110739;28;20038;-71